Time;durP1;ratioP1;P1;durP2;ratioP2;P2;SDS_P1;SDS_P2;PMS_P1;PMS_P2;Temp;Humidity;BMP_temperature;BMP_pressure;BME280_temperature;BME280_humidity;BME280_pressure;Samples;Min_cycle;Max_cycle;Signal;HPM_P1;HPM_P2
2022/05/05 00:01:40;;;;;;;5.63;2.67;;;8.90;77.70;;;;;;4996445;28;20250;-86
2022/05/05 00:04:08;;;;;;;5.47;2.50;;;8.90;78.50;;;;;;4996235;28;20203;-86
2022/05/05 00:06:36;;;;;;;7.83;2.77;;;8.90;78.20;;;;;;5013463;28;20196;-85
2022/05/05 00:09:04;;;;;;;6.03;2.90;;;8.90;78.40;;;;;;4995680;28;20232;-85
2022/05/05 00:14:31;;;;;;;4.43;2.70;;;8.80;79.90;;;;;;5014809;28;20216;-87
2022/05/05 00:17:01;;;;;;;5.87;2.73;;;8.70;79.60;;;;;;4997144;28;20184;-85
2022/05/05 00:19:30;;;;;;;4.83;2.60;;;8.70;79.40;;;;;;4995896;28;20715;-86
2022/05/05 00:21:57;;;;;;;7.83;2.63;;;8.80;80.20;;;;;;5012511;28;20323;-86
2022/05/05 00:24:24;;;;;;;5.27;2.93;;;8.70;80.20;;;;;;4995949;28;20298;-86
2022/05/05 00:26:52;;;;;;;6.40;2.80;;;8.80;81.00;;;;;;4996505;28;20207;-89
2022/05/05 00:29:19;;;;;;;8.90;3.10;;;8.80;81.40;;;;;;5014214;28;20250;-84
2022/05/05 00:31:47;;;;;;;5.60;2.77;;;8.80;81.10;;;;;;4996047;28;20286;-84
2022/05/05 00:34:14;;;;;;;4.20;2.60;;;8.80;80.80;;;;;;5013476;28;20208;-89
2022/05/05 00:36:42;;;;;;;6.63;2.80;;;8.90;80.50;;;;;;4996280;28;20223;-85
2022/05/05 00:39:12;;;;;;;6.87;2.60;;;8.90;80.60;;;;;;5005728;28;20768;-87
2022/05/05 00:41:43;;;;;;;6.17;2.67;;;8.90;80.00;;;;;;5013518;28;20208;-87
2022/05/05 00:44:11;;;;;;;7.50;2.70;;;8.90;80.00;;;;;;5013046;28;20315;-87
2022/05/05 00:46:38;;;;;;;6.03;2.63;;;8.80;80.00;;;;;;5013432;28;20223;-82
2022/05/05 00:49:05;;;;;;;7.27;2.73;;;8.80;80.20;;;;;;4997692;28;20234;-88
2022/05/05 00:51:33;;;;;;;7.07;2.67;;;8.80;80.20;;;;;;4995950;28;20207;-87
2022/05/05 00:53:59;;;;;;;5.40;2.80;;;8.80;81.00;;;;;;5013674;28;20220;-87
2022/05/05 00:56:28;;;;;;;4.90;2.70;;;8.90;81.10;;;;;;5014511;28;20665;-86
2022/05/05 00:58:57;;;;;;;6.53;2.80;;;8.80;80.80;;;;;;4996787;28;20307;-88
2022/05/05 01:01:31;;;;;;;5.43;2.57;;;8.80;80.70;;;;;;5001376;28;20287;-85
2022/05/05 01:03:58;;;;;;;6.07;2.73;;;8.80;80.90;;;;;;5014425;28;20196;-88
2022/05/05 01:06:27;;;;;;;5.30;2.90;;;8.80;80.50;;;;;;5013624;28;20188;-83
2022/05/05 01:08:54;;;;;;;9.53;3.17;;;8.80;81.20;;;;;;5012343;28;20204;-88
2022/05/05 01:11:21;;;;;;;6.27;3.17;;;8.70;80.80;;;;;;4995613;28;20299;-82
2022/05/05 01:13:47;;;;;;;8.33;4.10;;;8.70;81.50;;;;;;5012096;28;20211;-84
2022/05/05 01:16:15;;;;;;;6.10;3.20;;;8.70;81.90;;;;;;4995864;28;20188;-87
2022/05/05 01:18:42;;;;;;;6.63;3.83;;;8.60;82.40;;;;;;5014127;28;20192;-83
2022/05/05 01:21:10;;;;;;;10.10;3.50;;;8.70;82.60;;;;;;4999164;28;20294;-79
2022/05/05 01:23:38;;;;;;;5.73;3.37;;;8.70;82.50;;;;;;5023426;28;20895;-87
2022/05/05 01:28:52;;;;;;;7.43;3.67;;;8.70;82.80;;;;;;4999315;28;20553;-80
2022/05/05 01:31:19;;;;;;;6.97;3.50;;;8.70;83.50;;;;;;4998988;28;20211;-88
2022/05/05 01:33:46;;;;;;;5.60;3.13;;;8.70;83.30;;;;;;5016712;28;20227;-81
2022/05/05 01:36:13;;;;;;;6.73;3.13;;;8.70;83.00;;;;;;5019469;28;20283;-81
2022/05/05 01:38:41;;;;;;;9.00;3.00;;;8.80;83.60;;;;;;5018141;28;20551;-90
2022/05/05 01:41:09;;;;;;;4.67;3.07;;;8.80;83.00;;;;;;4999350;28;20236;-80
2022/05/05 01:43:38;;;;;;;7.07;2.80;;;8.80;83.00;;;;;;4999014;28;20330;-85
2022/05/05 01:46:05;;;;;;;5.93;3.00;;;8.80;83.10;;;;;;5019776;28;20234;-88
2022/05/05 01:48:33;;;;;;;5.67;2.87;;;8.90;84.00;;;;;;5025236;28;20238;-80
2022/05/05 01:51:01;;;;;;;6.67;2.93;;;8.90;82.70;;;;;;5004824;28;20311;-81
2022/05/05 01:53:28;;;;;;;6.97;2.90;;;8.90;83.00;;;;;;5004112;28;20291;-85
2022/05/05 01:55:55;;;;;;;5.60;2.60;;;8.90;82.90;;;;;;4996115;28;20201;-90
2022/05/05 01:58:23;;;;;;;6.50;2.60;;;8.90;83.90;;;;;;4982338;28;20208;-90
2022/05/05 02:00:49;;;;;;;5.27;2.70;;;8.80;82.60;;;;;;5505020;23;20529;-89
2022/05/05 02:03:18;;;;;;;5.67;2.57;;;8.80;82.60;;;;;;4991473;28;20226;-87
2022/05/05 02:05:46;;;;;;;5.73;2.50;;;8.80;82.10;;;;;;4976995;28;20269;-86
2022/05/05 02:08:13;;;;;;;6.80;2.77;;;8.80;81.90;;;;;;4991747;28;20201;-85
2022/05/05 02:10:40;;;;;;;5.87;2.70;;;8.80;82.30;;;;;;4976902;28;20270;-82
2022/05/05 02:13:07;;;;;;;5.03;2.40;;;8.80;82.30;;;;;;4976837;28;20190;-85
2022/05/05 02:15:34;;;;;;;6.67;2.77;;;8.80;83.30;;;;;;4993294;28;20228;-85
2022/05/05 02:18:12;;;;;;;3.87;2.40;;;8.70;82.40;;;;;;4959260;28;20549;-83
2022/05/05 02:20:40;;;;;;;8.40;2.63;;;8.70;82.60;;;;;;4959681;28;20194;-84
2022/05/05 02:23:08;;;;;;;7.50;2.20;;;8.70;83.10;;;;;;4991325;28;20225;-79
2022/05/05 02:25:36;;;;;;;5.23;2.47;;;8.80;82.40;;;;;;4977221;28;20655;-87
2022/05/05 02:28:03;;;;;;;4.47;2.50;;;8.80;82.80;;;;;;4975640;28;20233;-82
2022/05/05 02:30:30;;;;;;;6.13;2.50;;;8.80;83.30;;;;;;4983981;28;20240;-87
2022/05/05 02:32:57;;;;;;;5.53;2.40;;;8.90;82.90;;;;;;4975197;28;20256;-77
2022/05/05 02:35:24;;;;;;;4.40;2.50;;;8.80;82.70;;;;;;4959122;28;20202;-83
2022/05/05 02:40:38;;;;;;;3.73;2.10;;;8.80;83.20;;;;;;4994154;28;20221;-78
2022/05/05 02:43:06;;;;;;;5.93;2.50;;;8.80;82.70;;;;;;5012334;28;20225;-90
2022/05/05 02:45:33;;;;;;;4.10;2.30;;;8.90;82.60;;;;;;4993436;28;20268;-88
2022/05/05 02:48:01;;;;;;;5.80;2.37;;;8.90;82.70;;;;;;4960166;28;20268;-90
2022/05/05 02:50:28;;;;;;;4.43;2.20;;;8.90;82.40;;;;;;4995794;28;20186;-90
2022/05/05 02:52:55;;;;;;;4.47;2.47;;;8.90;82.50;;;;;;4983381;28;20202;-86
2022/05/05 02:55:22;;;;;;;3.87;2.30;;;8.90;82.30;;;;;;4958558;28;20246;-78
2022/05/05 02:57:50;;;;;;;4.23;2.20;;;8.90;82.70;;;;;;4983278;28;20201;-79
2022/05/05 03:00:18;;;;;;;3.53;2.30;;;8.90;82.00;;;;;;5011578;28;20635;-84
2022/05/05 03:02:45;;;;;;;4.13;2.03;;;8.90;82.10;;;;;;4994178;28;20571;-77
2022/05/05 03:05:13;;;;;;;6.53;2.20;;;8.90;82.70;;;;;;4978862;28;20617;-86
2022/05/05 03:07:41;;;;;;;5.60;2.10;;;8.80;81.80;;;;;;4989301;28;20204;-83
2022/05/05 03:10:10;;;;;;;6.87;2.30;;;8.80;81.90;;;;;;4995203;28;20223;-84
2022/05/05 03:12:37;;;;;;;5.87;2.50;;;8.90;82.40;;;;;;4978129;28;20193;-85
2022/05/05 03:15:04;;;;;;;4.83;2.37;;;8.80;82.30;;;;;;4993846;28;20193;-84
2022/05/05 03:17:31;;;;;;;4.33;2.00;;;8.90;82.90;;;;;;4995002;28;20296;-84
2022/05/05 03:19:59;;;;;;;4.63;1.90;;;8.90;82.90;;;;;;4977498;28;20204;-85
2022/05/05 03:22:26;;;;;;;3.43;2.00;;;8.90;82.50;;;;;;5002952;28;20827;-86
2022/05/05 03:24:53;;;;;;;4.83;2.10;;;9.00;82.00;;;;;;4993640;28;20192;-85
2022/05/05 03:27:19;;;;;;;4.43;2.30;;;8.90;81.70;;;;;;4977304;28;20201;-85
2022/05/05 03:29:46;;;;;;;5.37;2.23;;;8.90;82.00;;;;;;4993481;28;20251;-85
2022/05/05 03:32:15;;;;;;;6.43;2.13;;;8.90;82.00;;;;;;4998490;28;20205;-85
2022/05/05 03:34:42;;;;;;;5.60;2.43;;;9.00;82.30;;;;;;4977129;28;20201;-82
2022/05/05 03:39:41;;;;;;;4.10;2.07;;;8.90;81.70;;;;;;5012700;28;20219;-84
2022/05/05 03:42:08;;;;;;;4.87;2.50;;;8.90;81.70;;;;;;5011924;28;20307;-85
2022/05/05 03:44:35;;;;;;;5.43;2.43;;;9.00;81.80;;;;;;5029705;28;20254;-88
2022/05/05 03:47:02;;;;;;;6.80;2.43;;;8.90;82.10;;;;;;5015082;28;20649;-89
2022/05/05 03:49:28;;;;;;;5.77;2.07;;;9.00;81.70;;;;;;4996789;28;20295;-80
2022/05/05 03:51:56;;;;;;;4.07;2.30;;;9.00;82.00;;;;;;5020113;28;20189;-88
2022/05/05 03:54:26;;;;;;;5.47;2.10;;;9.10;81.10;;;;;;5014423;28;20196;-85
2022/05/05 03:56:53;;;;;;;3.30;2.10;;;9.20;81.00;;;;;;4997414;28;20729;-88
2022/05/05 03:59:22;;;;;;;4.57;2.20;;;9.20;80.60;;;;;;5004360;28;20273;-86
2022/05/05 04:01:49;;;;;;;5.03;2.40;;;9.20;80.00;;;;;;5041023;28;20191;-81
2022/05/05 04:04:17;;;;;;;7.57;2.60;;;9.10;79.90;;;;;;5047221;28;20219;-90
2022/05/05 04:06:44;;;;;;;4.63;2.20;;;9.10;80.50;;;;;;5027049;28;20719;-90
2022/05/05 04:09:14;;;;;;;5.43;2.33;;;9.20;80.50;;;;;;5017099;28;20195;-88
2022/05/05 04:11:40;;;;;;;4.20;2.40;;;9.20;80.90;;;;;;5016545;28;20238;-79
2022/05/05 04:14:07;;;;;;;4.10;2.30;;;9.20;80.20;;;;;;5016078;28;20318;-77
2022/05/05 04:16:34;;;;;;;6.23;2.20;;;9.30;80.00;;;;;;5033392;28;20215;-84
2022/05/05 04:19:03;;;;;;;10.00;2.60;;;9.30;79.80;;;;;;5033236;28;20195;-88
2022/05/05 04:21:30;;;;;;;7.17;2.70;;;9.40;80.00;;;;;;5033638;28;20517;-83
2022/05/05 04:23:57;;;;;;;6.83;2.60;;;9.40;80.00;;;;;;5018415;28;20219;-88
2022/05/05 04:26:27;;;;;;;3.90;2.33;;;9.40;79.50;;;;;;5035215;28;20226;-85
2022/05/05 04:28:56;;;;;;;5.47;2.40;;;9.40;80.00;;;;;;5016260;28;20666;-84
2022/05/05 04:31:27;;;;;;;4.13;2.43;;;9.50;79.80;;;;;;5019838;28;20359;-81
2022/05/05 04:33:54;;;;;;;5.37;2.60;;;9.40;79.80;;;;;;5016258;28;20191;-83
2022/05/05 04:36:21;;;;;;;4.67;2.57;;;9.50;79.50;;;;;;5015789;28;20556;-85
2022/05/05 04:38:47;;;;;;;5.33;2.50;;;9.50;78.90;;;;;;5015829;28;20314;-83
2022/05/05 04:41:14;;;;;;;7.97;2.80;;;9.70;79.20;;;;;;5017509;28;20234;-92
2022/05/05 04:43:41;;;;;;;4.93;2.50;;;9.70;78.70;;;;;;5020884;28;20249;-87
2022/05/05 04:46:09;;;;;;;4.63;2.73;;;9.70;78.30;;;;;;5030509;28;20282;-89
2022/05/05 04:48:36;;;;;;;5.20;2.63;;;9.80;78.60;;;;;;5046208;28;20204;-88
2022/05/05 04:51:04;;;;;;;7.27;2.53;;;9.80;78.70;;;;;;5023645;28;20204;-86
2022/05/05 04:53:31;;;;;;;5.40;2.73;;;9.80;78.90;;;;;;5007155;28;20200;-89
2022/05/05 04:55:58;;;;;;;5.50;2.60;;;9.80;78.00;;;;;;5031719;28;20199;-90
2022/05/05 04:58:25;;;;;;;5.10;2.77;;;9.70;78.40;;;;;;5048906;28;20215;-85
2022/05/05 05:00:53;;;;;;;6.57;2.53;;;9.80;78.30;;;;;;5019227;28;20234;-80
2022/05/05 05:03:32;;;;;;;3.63;2.30;;;9.90;79.50;;;;;;5037443;28;20223;-90
2022/05/05 05:06:01;;;;;;;4.43;2.80;;;10.20;79.20;;;;;;5038091;28;20645;-88
2022/05/05 05:08:28;;;;;;;4.63;2.60;;;10.20;78.50;;;;;;5035588;28;20195;-88
2022/05/05 05:10:55;;;;;;;7.77;2.80;;;10.30;78.60;;;;;;5048873;28;20179;-89
2022/05/05 05:13:22;;;;;;;5.17;2.70;;;10.40;78.10;;;;;;5058067;28;20172;-86
2022/05/05 05:15:49;;;;;;;7.03;2.70;;;10.40;76.90;;;;;;5036645;28;20223;-86
2022/05/05 05:18:16;;;;;;;5.90;2.90;;;10.30;76.70;;;;;;5019504;28;20215;-86
2022/05/05 05:20:43;;;;;;;5.90;2.57;;;10.40;76.70;;;;;;5035683;28;20249;-87
2022/05/05 05:23:10;;;;;;;5.40;2.60;;;10.60;76.70;;;;;;5018894;28;20243;-87
2022/05/05 05:25:37;;;;;;;4.60;2.63;;;10.60;76.60;;;;;;5035702;28;20242;-86
2022/05/05 05:28:05;;;;;;;6.43;2.70;;;10.60;77.00;;;;;;5018870;28;20200;-86
2022/05/05 05:30:39;;;;;;;5.93;2.77;;;10.70;75.20;;;;;;5036470;28;20195;-86
2022/05/05 05:33:07;;;;;;;5.77;2.90;;;10.70;75.70;;;;;;5018902;28;20286;-85
2022/05/05 05:35:34;;;;;;;4.90;2.70;;;10.60;76.00;;;;;;5019336;28;20203;-87
2022/05/05 05:38:01;;;;;;;8.27;2.70;;;10.70;75.50;;;;;;5018816;28;20256;-87
2022/05/05 05:40:28;;;;;;;6.10;2.87;;;10.80;76.00;;;;;;5036402;28;20227;-74
2022/05/05 05:42:55;;;;;;;5.77;2.60;;;10.90;76.50;;;;;;5018482;28;20228;-76
2022/05/05 05:45:22;;;;;;;6.37;2.80;;;11.00;76.30;;;;;;5037647;28;20214;-89
2022/05/05 05:47:49;;;;;;;7.33;3.17;;;11.10;76.50;;;;;;5040828;28;20270;-88
2022/05/05 05:50:17;;;;;;;5.57;2.80;;;11.20;76.00;;;;;;5036763;28;20665;-77
2022/05/05 05:52:43;;;;;;;6.03;2.70;;;11.20;75.70;;;;;;5036451;28;20215;-84
2022/05/05 05:55:10;;;;;;;8.93;3.00;;;11.20;76.10;;;;;;5018093;28;20219;-78
2022/05/05 05:57:37;;;;;;;5.47;3.17;;;11.30;77.10;;;;;;5034460;28;20295;-81
2022/05/05 06:00:05;;;;;;;8.20;2.93;;;11.50;77.20;;;;;;5035596;28;20306;-80
2022/05/05 06:05:19;;;;;;;4.77;2.90;;;11.40;75.20;;;;;;5017181;28;20191;-90
2022/05/05 06:07:46;;;;;;;7.17;3.23;;;11.50;75.40;;;;;;5035050;28;20228;-76
2022/05/05 06:10:13;;;;;;;4.80;3.07;;;11.50;74.40;;;;;;5027231;28;20315;-74
2022/05/05 06:12:40;;;;;;;6.70;2.83;;;11.50;74.70;;;;;;5021784;28;20254;-75
2022/05/05 06:15:07;;;;;;;4.00;2.73;;;11.60;74.40;;;;;;5038379;28;20208;-79
2022/05/05 06:17:35;;;;;;;5.63;3.13;;;11.70;74.20;;;;;;5041852;28;20188;-84
2022/05/05 06:20:03;;;;;;;8.37;3.60;;;11.70;73.60;;;;;;5038330;28;20227;-76
2022/05/05 06:22:30;;;;;;;5.30;2.80;;;11.80;74.10;;;;;;5019657;28;20187;-81
2022/05/05 06:24:56;;;;;;;7.00;2.90;;;12.20;74.50;;;;;;5046034;28;20188;-91
2022/05/05 06:27:24;;;;;;;6.83;2.93;;;12.30;74.40;;;;;;5039669;28;20234;-91
2022/05/05 06:29:51;;;;;;;9.57;3.10;;;12.50;73.30;;;;;;5020094;28;20223;-91
2022/05/05 06:32:18;;;;;;;6.70;3.17;;;12.60;72.00;;;;;;5020345;28;20688;-77
2022/05/05 06:34:45;;;;;;;8.03;3.10;;;12.80;72.10;;;;;;5025380;28;20219;-92
2022/05/05 06:37:12;;;;;;;7.00;3.37;;;12.70;72.50;;;;;;5025301;28;20234;-92
2022/05/05 06:39:39;;;;;;;7.93;2.93;;;12.80;71.90;;;;;;5036662;28;20286;-90
2022/05/05 06:42:08;;;;;;;11.90;3.03;;;12.90;72.20;;;;;;5046850;28;20188;-90
2022/05/05 06:44:35;;;;;;;8.73;3.60;;;13.10;72.50;;;;;;5021374;28;20219;-76
2022/05/05 06:47:04;;;;;;;5.47;2.90;;;13.10;73.20;;;;;;5037744;28;20573;-78
2022/05/05 06:49:31;;;;;;;4.57;2.93;;;13.10;73.70;;;;;;5041477;28;20266;-86
2022/05/05 06:51:59;;;;;;;6.73;3.20;;;13.20;73.50;;;;;;5030351;28;20230;-86
2022/05/05 06:54:31;;;;;;;6.77;3.00;;;13.20;71.90;;;;;;5019415;28;20587;-80
2022/05/05 06:56:58;;;;;;;5.77;3.07;;;13.20;72.40;;;;;;5017125;28;20286;-80
2022/05/05 06:59:25;;;;;;;4.40;2.80;;;13.30;73.50;;;;;;5034343;28;20208;-79
2022/05/05 07:01:52;;;;;;;6.67;3.07;;;13.20;72.10;;;;;;5016719;28;20290;-77
2022/05/05 07:07:13;;;;;;;8.60;3.20;;;13.10;72.60;;;;;;5034144;28;20219;-80
2022/05/05 07:12:27;;;;;;;7.37;3.03;;;13.20;72.80;;;;;;5017062;28;20739;-78
2022/05/05 07:14:55;;;;;;;7.97;3.17;;;13.20;72.50;;;;;;5016148;28;20200;-77
2022/05/05 07:17:23;;;;;;;6.20;3.13;;;13.20;72.00;;;;;;5016564;28;20703;-81
2022/05/05 07:19:52;;;;;;;5.90;3.30;;;13.30;72.30;;;;;;5016331;28;20679;-77
2022/05/05 07:22:19;;;;;;;5.97;3.13;;;13.30;72.90;;;;;;5016202;28;20242;-77
2022/05/05 07:24:46;;;;;;;7.73;3.27;;;13.40;73.50;;;;;;5016202;28;20273;-80
2022/05/05 07:27:14;;;;;;;4.20;2.80;;;13.50;73.30;;;;;;5013829;28;20294;-77
2022/05/05 07:29:43;;;;;;;7.50;3.20;;;13.50;73.60;;;;;;5033975;28;20203;-77
2022/05/05 07:32:10;;;;;;;7.50;3.07;;;13.50;73.50;;;;;;5032581;28;20225;-78
2022/05/05 07:34:39;;;;;;;6.50;3.40;;;13.70;73.60;;;;;;5015791;28;20246;-77
2022/05/05 07:37:06;;;;;;;6.77;3.10;;;13.90;73.70;;;;;;5015936;28;20200;-78
2022/05/05 07:39:33;;;;;;;6.97;3.27;;;14.00;73.30;;;;;;5015805;28;20219;-75
2022/05/05 07:42:00;;;;;;;6.53;2.90;;;14.10;72.80;;;;;;5016082;28;20195;-76
2022/05/05 07:44:27;;;;;;;5.67;2.87;;;14.30;72.70;;;;;;5015503;28;20592;-76
2022/05/05 07:46:55;;;;;;;8.33;3.47;;;14.60;72.90;;;;;;5015972;28;20234;-76
2022/05/05 07:49:22;;;;;;;6.00;3.00;;;14.80;72.50;;;;;;5015720;28;20258;-76
2022/05/05 07:52:04;;;;;;;6.63;3.23;;;15.00;72.60;;;;;;5031546;28;20270;-76
2022/05/05 07:54:36;;;;;;;6.53;2.90;;;15.10;71.10;;;;;;5032225;28;20309;-74
2022/05/05 07:57:04;;;;;;;7.63;3.43;;;15.00;71.50;;;;;;5024442;28;20291;-76
2022/05/05 07:59:31;;;;;;;8.07;3.37;;;15.10;71.10;;;;;;5015361;28;20382;-76
2022/05/05 08:01:58;;;;;;;8.23;3.20;;;15.30;73.20;;;;;;4999534;28;20225;-74
2022/05/05 08:04:26;;;;;;;8.07;3.33;;;15.50;70.90;;;;;;5033125;28;20353;-76
2022/05/05 08:06:53;;;;;;;7.27;3.70;;;15.50;71.70;;;;;;5012497;28;20695;-76
2022/05/05 08:09:20;;;;;;;6.43;3.13;;;15.60;70.80;;;;;;5012048;28;20291;-78
2022/05/05 08:12:07;;;;;;;8.00;3.00;;;15.80;71.40;;;;;;5026124;28;20192;-75
2022/05/05 08:14:34;;;;;;;6.00;3.07;;;15.90;70.10;;;;;;5015238;28;20298;-76
2022/05/05 08:17:01;;;;;;;6.50;2.90;;;15.80;70.30;;;;;;5028503;28;20283;-77
2022/05/05 08:19:29;;;;;;;7.80;3.50;;;15.70;69.30;;;;;;4990203;28;20565;-77
2022/05/05 08:21:59;;;;;;;7.67;3.10;;;16.00;70.10;;;;;;5008462;28;20695;-77
2022/05/05 08:30:02;;;;;;;5.53;2.83;;;15.80;70.30;;;;;;5029958;28;20223;-74
2022/05/05 08:32:30;;;;;;;5.20;2.90;;;15.60;71.40;;;;;;5035428;28;20546;-75
2022/05/05 08:35:00;;;;;;;5.23;2.80;;;15.40;72.40;;;;;;5018755;28;20184;-78
2022/05/05 08:37:27;;;;;;;7.57;2.80;;;15.40;73.00;;;;;;5013976;28;20560;-78
2022/05/05 08:39:54;;;;;;;7.23;3.13;;;15.50;72.90;;;;;;4996347;28;20619;-79
2022/05/05 08:42:22;;;;;;;4.27;2.70;;;15.50;72.70;;;;;;4996257;28;20201;-78
2022/05/05 08:44:48;;;;;;;7.30;3.20;;;15.60;72.90;;;;;;4979784;28;20740;-75
2022/05/05 08:47:17;;;;;;;8.23;3.20;;;15.80;72.50;;;;;;4997451;28;20193;-79
2022/05/05 08:49:44;;;;;;;6.47;3.00;;;15.90;72.10;;;;;;4996104;28;20251;-80
2022/05/05 08:52:17;;;;;;;7.60;3.10;;;15.90;71.50;;;;;;4997811;28;20232;-80
2022/05/05 08:54:47;;;;;;;7.60;2.90;;;15.80;71.30;;;;;;4996055;28;20303;-79
2022/05/05 08:57:15;;;;;;;5.87;2.70;;;15.90;72.00;;;;;;4980215;28;20205;-82
2022/05/05 08:59:42;;;;;;;6.30;2.73;;;16.10;72.40;;;;;;4996578;28;20250;-76
2022/05/05 09:02:12;;;;;;;5.27;2.77;;;16.30;71.80;;;;;;4998791;28;20220;-83
2022/05/05 09:04:44;;;;;;;5.23;2.47;;;16.50;71.90;;;;;;4995707;28;20621;-81
2022/05/05 09:07:11;;;;;;;6.80;2.50;;;16.80;71.50;;;;;;4993967;28;20634;-82
2022/05/05 09:09:39;;;;;;;7.40;3.17;;;17.50;70.30;;;;;;5016150;28;20200;-78
2022/05/05 09:12:20;;;;;;;9.30;3.13;;;18.20;66.90;;;;;;4995630;28;20270;-76
2022/05/05 09:14:49;;;;;;;8.03;3.20;;;18.60;65.50;;;;;;4991850;28;20288;-80
2022/05/05 09:17:19;;;;;;;5.87;2.80;;;19.00;64.00;;;;;;4991324;28;20189;-78
2022/05/05 09:19:50;;;;;;;5.87;2.50;;;19.50;64.70;;;;;;5016151;28;20272;-79
2022/05/05 09:22:21;;;;;;;4.23;2.50;;;19.90;63.00;;;;;;4998622;28;20254;-76
2022/05/05 09:24:51;;;;;;;4.57;2.80;;;20.10;60.60;;;;;;4998463;28;20212;-79
2022/05/05 09:27:32;;;;;;;5.27;2.80;;;20.40;61.00;;;;;;4995356;28;20197;-77
2022/05/05 09:30:00;;;;;;;5.77;2.53;;;20.80;59.90;;;;;;4998396;28;20199;-78
2022/05/05 09:32:28;;;;;;;6.60;2.60;;;21.00;59.70;;;;;;4998677;28;20640;-79
2022/05/05 09:35:02;;;;;;;6.83;2.80;;;21.00;58.30;;;;;;5009596;28;20276;-72
2022/05/05 09:37:30;;;;;;;8.63;2.70;;;21.40;57.80;;;;;;4997573;28;20211;-72
2022/05/05 09:39:58;;;;;;;7.30;2.63;;;21.40;56.40;;;;;;4996992;28;20193;-80
2022/05/05 09:42:43;;;;;;;6.27;2.50;;;21.60;57.70;;;;;;5015860;28;20251;-78
2022/05/05 09:45:36;;;;;;;5.50;2.57;;;21.80;56.80;;;;;;4998364;28;20271;-85
2022/05/05 09:48:06;;;;;;;6.50;2.77;;;21.90;54.90;;;;;;4982315;28;20196;-85
2022/05/05 09:50:34;;;;;;;7.07;2.63;;;22.10;56.10;;;;;;4994702;28;20220;-84
2022/05/05 09:58:39;;;;;;;7.43;2.70;;;22.70;54.00;;;;;;4996154;28;20208;-84
2022/05/05 10:01:13;;;;;;;5.63;2.70;;;22.90;54.50;;;;;;5010149;28;20235;-81
2022/05/05 10:06:34;;;;;;;5.03;2.67;;;23.70;53.20;;;;;;4994565;28;20196;-80
2022/05/05 10:09:07;;;;;;;5.88;2.92;;;24.00;51.30;;;;;;5007623;28;20223;-80
2022/05/05 10:11:35;;;;;;;6.15;2.80;;;23.80;50.10;;;;;;5013825;28;20259;-81
2022/05/05 10:14:06;;;;;;;5.45;3.20;;;23.90;50.60;;;;;;4994785;28;20623;-79
2022/05/05 10:16:35;;;;;;;4.63;2.70;;;24.20;50.60;;;;;;4984773;28;20642;-80
2022/05/05 10:19:04;;;;;;;5.68;2.70;;;24.40;49.80;;;;;;5010685;28;20208;-79
2022/05/05 10:21:45;;;;;;;5.38;2.92;;;24.50;48.70;;;;;;4992459;28;20280;-82
2022/05/05 10:24:32;;;;;;;8.23;2.90;;;24.50;48.70;;;;;;4985228;28;20298;-83
2022/05/05 10:27:03;;;;;;;6.93;2.78;;;24.60;48.70;;;;;;4998368;28;20642;-88
2022/05/05 10:29:41;;;;;;;6.72;2.85;;;24.80;49.60;;;;;;4998247;28;20205;-81
2022/05/05 10:32:18;;;;;;;6.72;2.90;;;25.00;47.30;;;;;;4994896;28;20288;-75
2022/05/05 10:34:51;;;;;;;4.47;2.80;;;25.00;48.50;;;;;;5006653;28;20271;-83
2022/05/05 10:37:22;;;;;;;4.20;2.63;;;25.10;48.60;;;;;;4996828;28;20195;-73
2022/05/05 10:39:59;;;;;;;4.97;3.10;;;25.40;46.90;;;;;;4984040;28;20196;-83
2022/05/05 10:42:41;;;;;;;6.15;2.90;;;25.40;47.20;;;;;;5014734;28;20188;-77
2022/05/05 10:45:27;;;;;;;8.10;3.00;;;25.10;46.40;;;;;;4993587;28;20209;-78
2022/05/05 10:50:31;;;;;;;5.03;2.85;;;25.50;46.80;;;;;;4986443;28;20643;-81
2022/05/05 10:53:00;;;;;;;4.47;2.80;;;25.40;46.10;;;;;;4996724;28;20231;-79
2022/05/05 10:55:31;;;;;;;6.40;2.95;;;25.30;47.50;;;;;;5013105;28;20196;-83
2022/05/05 10:58:55;;;;;;;3.95;3.00;;;25.10;46.70;;;;;;4997359;28;20573;-81
2022/05/05 11:01:22;;;;;;;7.97;3.00;;;25.00;46.80;;;;;;4993971;28;20251;-78
2022/05/05 11:04:24;;;;;;;5.40;3.00;;;24.50;47.30;;;;;;4998495;28;20192;-72
2022/05/05 11:07:36;;;;;;;5.50;3.00;;;24.40;48.40;;;;;;5013220;28;20230;-72
2022/05/05 11:10:06;;;;;;;6.35;3.40;;;24.50;49.00;;;;;;4937896;29;20619;-79
2022/05/05 11:12:35;;;;;;;4.30;3.30;;;24.60;49.30;;;;;;4934710;29;20207;-72
2022/05/05 11:23:45;;;;;;;6.10;3.53;;;23.80;50.60;;;;;;4969575;28;20203;-77
2022/05/05 11:26:18;;;;;;;6.93;4.30;;;23.40;51.00;;;;;;4942012;29;20276;-89
2022/05/05 11:28:47;;;;;;;5.35;4.00;;;23.30;51.50;;;;;;4938304;29;20218;-82
2022/05/05 11:31:24;;;;;;;6.93;3.80;;;22.90;52.00;;;;;;4939257;29;20216;-87
2022/05/05 11:33:53;;;;;;;7.53;4.07;;;22.70;52.30;;;;;;4938753;29;20194;-80
2022/05/05 11:36:28;;;;;;;11.13;4.57;;;22.50;53.10;;;;;;4953452;29;20246;-82
2022/05/05 11:38:56;;;;;;;6.67;4.00;;;22.40;53.60;;;;;;4963743;28;20740;-82
2022/05/05 11:41:24;;;;;;;7.78;5.20;;;22.60;53.70;;;;;;4958430;28;20257;-84
2022/05/05 11:46:38;;;;;;;7.53;4.18;;;23.70;51.60;;;;;;5009691;28;20689;-82
2022/05/05 11:49:10;;;;;;;9.52;4.60;;;24.60;51.90;;;;;;5025855;28;20837;-88
2022/05/05 11:51:39;;;;;;;7.10;4.60;;;25.00;49.60;;;;;;4956327;29;20652;-72
2022/05/05 11:54:09;;;;;;;7.75;4.22;;;25.40;48.40;;;;;;4953213;29;20676;-80
2022/05/05 11:56:42;;;;;;;6.85;3.70;;;25.40;49.00;;;;;;4953958;29;20198;-86
2022/05/05 12:02:04;;;;;;;7.63;3.42;;;25.60;48.40;;;;;;4932967;29;20206;-85
2022/05/05 12:04:33;;;;;;;6.45;3.80;;;25.70;47.10;;;;;;4918000;29;20223;-75
2022/05/05 12:07:00;;;;;;;10.52;3.55;;;25.80;47.10;;;;;;4936960;28;20199;-86
2022/05/05 12:09:28;;;;;;;5.72;3.58;;;26.50;46.60;;;;;;4967638;28;20207;-84
2022/05/05 12:12:24;;;;;;;5.82;3.20;;;26.60;46.10;;;;;;5010862;28;20198;-83
2022/05/05 12:14:54;;;;;;;6.35;3.20;;;27.00;45.60;;;;;;5013445;28;20287;-72
2022/05/05 12:17:24;;;;;;;4.93;2.88;;;27.40;45.10;;;;;;5022121;28;20207;-73
2022/05/05 12:19:54;;;;;;;6.32;3.30;;;27.00;45.10;;;;;;5005237;28;20653;-80
2022/05/05 12:22:27;;;;;;;6.53;2.90;;;26.60;45.40;;;;;;4998447;28;20200;-87
2022/05/05 12:24:54;;;;;;;5.18;3.25;;;26.90;45.40;;;;;;5015090;28;20307;-85
2022/05/05 12:27:25;;;;;;;5.03;3.20;;;26.50;45.50;;;;;;5021090;28;20641;-87
2022/05/05 12:29:52;;;;;;;6.38;3.58;;;25.90;45.80;;;;;;5020994;28;20198;-83
2022/05/05 12:32:23;;;;;;;6.57;3.50;;;25.20;45.90;;;;;;5015430;28;20202;-82
2022/05/05 12:35:10;;;;;;;10.43;3.97;;;25.20;48.00;;;;;;5013194;28;20227;-81
2022/05/05 12:37:38;;;;;;;4.75;3.58;;;25.40;47.40;;;;;;4992878;28;20550;-83
2022/05/05 12:40:07;;;;;;;9.60;3.72;;;26.40;47.00;;;;;;4992575;28;20566;-80
2022/05/05 12:42:39;;;;;;;4.38;3.33;;;27.00;45.70;;;;;;4998807;28;20251;-80
2022/05/05 12:45:20;;;;;;;8.52;3.20;;;28.00;44.90;;;;;;5010337;28;20206;-81
2022/05/05 12:47:49;;;;;;;4.43;3.10;;;28.20;43.30;;;;;;5011230;28;20222;-82
2022/05/05 12:50:41;;;;;;;4.97;3.20;;;28.00;44.00;;;;;;5012031;28;20637;-78
2022/05/05 13:01:34;;;;;;;17.77;4.70;;;28.70;42.20;;;;;;4994888;28;20657;-80
2022/05/05 13:04:07;;;;;;;4.78;3.40;;;28.60;42.50;;;;;;4995600;28;20562;-80
2022/05/05 13:06:52;;;;;;;5.55;3.03;;;29.40;41.60;;;;;;5009502;28;20302;-79
2022/05/05 13:09:23;;;;;;;7.85;3.53;;;29.60;42.20;;;;;;5012322;28;20199;-78
2022/05/05 13:12:32;;;;;;;6.72;3.20;;;29.90;41.00;;;;;;5020223;28;20291;-75
2022/05/05 13:15:31;;;;;;;6.15;3.25;;;29.10;41.90;;;;;;4918973;29;20214;-75
2022/05/05 13:18:06;;;;;;;5.43;3.22;;;29.00;42.50;;;;;;4919763;29;20619;-78
2022/05/05 13:20:56;;;;;;;4.93;3.38;;;29.70;41.40;;;;;;4920873;29;20677;-76
2022/05/05 13:23:27;;;;;;;6.82;3.38;;;29.70;40.40;;;;;;4929952;29;20234;-78
2022/05/05 13:26:03;;;;;;;6.43;3.42;;;29.60;40.80;;;;;;4920521;29;20621;-80
2022/05/05 13:28:34;;;;;;;6.88;3.70;;;29.10;41.70;;;;;;4920121;29;20704;-76
2022/05/05 13:31:04;;;;;;;4.72;3.10;;;29.70;41.70;;;;;;4920974;29;20250;-84
2022/05/05 13:34:03;;;;;;;5.45;3.40;;;30.40;40.80;;;;;;4917934;29;20577;-83
2022/05/05 13:36:32;;;;;;;4.70;3.20;;;30.90;40.20;;;;;;4917771;29;20715;-77
2022/05/05 13:38:59;;;;;;;4.57;3.28;;;31.80;39.70;;;;;;4930359;29;20262;-80
2022/05/05 13:41:34;;;;;;;5.65;3.40;;;31.20;38.40;;;;;;4920469;29;20203;-81
2022/05/05 13:44:02;;;;;;;5.38;3.35;;;31.30;39.20;;;;;;4955232;28;20262;-86
2022/05/05 13:46:31;;;;;;;4.85;3.47;;;31.60;39.20;;;;;;4973176;28;20221;-79
2022/05/05 13:48:58;;;;;;;5.72;3.30;;;32.30;38.90;;;;;;4958515;28;20240;-74
2022/05/05 13:51:25;;;;;;;5.47;3.13;;;31.80;45.00;;;;;;4972793;28;20643;-73
2022/05/05 13:53:52;;;;;;;4.75;3.53;;;30.80;44.10;;;;;;5017497;28;20188;-74
2022/05/05 13:56:19;;;;;;;6.15;3.10;;;29.60;46.60;;;;;;5017204;28;20222;-72
2022/05/05 13:58:46;;;;;;;4.60;3.40;;;29.00;46.30;;;;;;5035246;28;20242;-74
2022/05/05 14:01:12;;;;;;;5.10;3.47;;;28.50;47.30;;;;;;5017745;28;20589;-74
2022/05/05 14:03:45;;;;;;;7.20;3.28;;;28.50;45.70;;;;;;5017265;28;20333;-76